createdAt,value
2023-03-22T00:01:12.044Z,100490.47
2023-03-22T00:04:14.398Z,100486.56
2023-03-22T00:07:16.810Z,100485.41
2023-03-22T00:10:19.145Z,100480.69
2023-03-22T00:13:21.480Z,100477.53
2023-03-22T00:16:23.918Z,100470.50
2023-03-22T00:19:26.733Z,100476.75
2023-03-22T00:22:29.082Z,100474.38
2023-03-22T00:25:31.489Z,100445.63
2023-03-22T00:28:34.622Z,100460.25
2023-03-22T00:31:37.068Z,100468.47
2023-03-22T00:34:39.462Z,100464.16
2023-03-22T00:37:41.782Z,100461.81
2023-03-22T00:40:44.445Z,100467.66
2023-03-22T00:43:47.364Z,100442.94
2023-03-22T00:46:49.728Z,100447.63
2023-03-22T00:49:52.106Z,100471.09
2023-03-22T00:52:54.448Z,100469.50
2023-03-22T00:55:57.424Z,100471.03
2023-03-22T00:59:00.403Z,100467.16
2023-03-22T01:02:04.291Z,100462.03
2023-03-22T01:05:07.332Z,100465.13
2023-03-22T01:08:10.488Z,100463.19
2023-03-22T01:11:13.154Z,100463.56
2023-03-22T01:14:15.546Z,100451.38
2023-03-22T01:17:17.981Z,100446.22
2023-03-22T01:20:20.462Z,100462.34
2023-03-22T01:23:22.840Z,100452.97
2023-03-22T01:26:25.652Z,100449.03
2023-03-22T01:29:28.202Z,100452.91
2023-03-22T01:32:30.595Z,100443.91
2023-03-22T01:35:33.888Z,100454.84
2023-03-22T01:38:36.552Z,100442.34
2023-03-22T01:41:39.370Z,100431.66
2023-03-22T01:45:14.396Z,100448.91
2023-03-22T01:48:34.285Z,100439.94
2023-03-22T01:51:53.780Z,100441.47
2023-03-22T01:55:09.846Z,100450.00
2023-03-22T01:58:19.795Z,100453.50
2023-03-22T02:01:31.066Z,100443.31
2023-03-22T02:04:39.300Z,100451.59
2023-03-22T02:07:44.198Z,100451.97
2023-03-22T02:10:47.082Z,100440.94
2023-03-22T02:14:14.766Z,100454.28
2023-03-22T02:17:53.701Z,100469.09
2023-03-22T02:21:26.999Z,100466.38
2023-03-22T02:25:00.326Z,100462.06
2023-03-22T02:28:36.711Z,100460.91
2023-03-22T02:32:06.892Z,100451.47
2023-03-22T02:35:33.571Z,100457.03
2023-03-22T02:38:57.835Z,100470.28
2023-03-22T02:42:17.414Z,100461.69
2023-03-22T02:45:31.763Z,100468.34
2023-03-22T02:48:54.316Z,100467.56
2023-03-22T02:52:07.291Z,100461.69
2023-03-22T02:55:19.097Z,100475.38
2023-03-22T02:58:26.604Z,100450.31
2023-03-22T03:01:34.383Z,100451.88
2023-03-22T03:04:41.631Z,100465.22
2023-03-22T03:07:48.920Z,100468.34
2023-03-22T03:10:51.921Z,100467.88
2023-03-22T03:13:54.542Z,100472.66
2023-03-22T03:17:28.174Z,100478.13
2023-03-22T03:20:39.838Z,100475.38
2023-03-22T03:23:49.642Z,100460.91
2023-03-22T03:26:58.472Z,100467.66
2023-03-22T03:30:17.193Z,100473.06
2023-03-22T03:33:22.479Z,100486.41
2023-03-22T03:36:26.998Z,100470.28
2023-03-22T03:39:33.469Z,100470.34
2023-03-22T03:42:37.791Z,100455.06
2023-03-22T03:45:40.809Z,100470.75
2023-03-22T03:48:47.110Z,100482.88
2023-03-22T03:51:52.619Z,100453.78
2023-03-22T03:54:55.287Z,100474.69
2023-03-22T03:58:03.516Z,100476.22
2023-03-22T04:01:06.180Z,100475.47
2023-03-22T04:04:31.229Z,100485.59
2023-03-22T04:07:37.452Z,100485.19
2023-03-22T04:10:40.099Z,100499.34
2023-03-22T04:13:42.657Z,100483.03
2023-03-22T04:16:49.373Z,100475.09
2023-03-22T04:19:57.182Z,100463.16
2023-03-22T04:23:00.327Z,100468.50
2023-03-22T04:26:03.776Z,100486.31
2023-03-22T04:29:16.362Z,100485.34
2023-03-22T04:32:26.306Z,100472.63
2023-03-22T04:35:30.415Z,100475.16
2023-03-22T04:38:33.876Z,100474.53
2023-03-22T04:41:37.233Z,100479.72
2023-03-22T04:44:39.659Z,100479.41
2023-03-22T04:47:42.207Z,100485.28
2023-03-22T04:50:45.661Z,100485.31
2023-03-22T04:53:48.116Z,100483.38
2023-03-22T04:56:50.933Z,100481.03
2023-03-22T04:59:55.374Z,100497.50
2023-03-22T05:02:58.499Z,100494.75
2023-03-22T05:06:10.397Z,100500.63
2023-03-22T05:09:23.494Z,100502.59
2023-03-22T05:12:28.578Z,100502.53
2023-03-22T05:15:39.761Z,100502.53
2023-03-22T05:18:45.626Z,100493.91
2023-03-22T05:21:48.810Z,100500.19
2023-03-22T05:24:51.368Z,100501.34
2023-03-22T05:28:03.596Z,100498.59
2023-03-22T05:31:22.664Z,100508.75
2023-03-22T05:34:35.877Z,100508.75
2023-03-22T05:37:49.426Z,100514.22
2023-03-22T05:40:54.448Z,100516.19
2023-03-22T05:43:57.457Z,100513.41
2023-03-22T05:47:00.114Z,100511.81
2023-03-22T05:50:02.609Z,100521.22
2023-03-22T05:53:07.070Z,100524.34
2023-03-22T05:56:47.691Z,100525.09
2023-03-22T05:59:53.930Z,100532.13
2023-03-22T06:03:03.747Z,100518.00
2023-03-22T06:06:10.826Z,100534.44
2023-03-22T06:09:23.615Z,100552.00
2023-03-22T06:12:30.064Z,100531.19
2023-03-22T06:15:41.727Z,100542.13
2023-03-22T06:18:46.407Z,100526.44
2023-03-22T06:21:48.778Z,100539.75
2023-03-22T06:24:52.413Z,100529.56
2023-03-22T06:28:08.799Z,100539.00
2023-03-22T06:31:13.355Z,100548.78
2023-03-22T06:34:24.435Z,100538.22
2023-03-22T06:37:27.026Z,100538.22
2023-03-22T06:40:30.725Z,100535.88
2023-03-22T06:43:33.234Z,100529.22
2023-03-22T06:46:47.882Z,100552.41
2023-03-22T06:50:14.939Z,100547.72
2023-03-22T06:53:37.631Z,100564.97
2023-03-22T06:56:40.473Z,100560.53
2023-03-22T06:59:43.480Z,100574.31
2023-03-22T07:02:46.114Z,100578.19
2023-03-22T07:06:07.277Z,100569.13
2023-03-22T07:09:13.265Z,100568.34
2023-03-22T07:12:16.193Z,100574.63
2023-03-22T07:15:24.277Z,100551.09
2023-03-22T07:18:36.860Z,100550.34
2023-03-22T07:21:40.005Z,100563.63
2023-03-22T07:24:57.027Z,100554.59
2023-03-22T07:28:01.768Z,100546.00
2023-03-22T07:31:07.928Z,100553.84
2023-03-22T07:34:20.850Z,100535.38
2023-03-22T07:37:46.429Z,100554.28
2023-03-22T07:40:57.625Z,100531.88
2023-03-22T07:44:17.738Z,100538.59
2023-03-22T07:47:42.617Z,100551.22
2023-03-22T07:50:56.765Z,100554.00
2023-03-22T07:54:01.691Z,100539.97
2023-03-22T07:57:05.462Z,100543.94
2023-03-22T08:00:12.191Z,100547.94
2023-03-22T08:03:37.836Z,100540.56
2023-03-22T08:06:49.985Z,100543.34
2023-03-22T08:09:52.792Z,100548.47
2023-03-22T08:12:55.479Z,100541.78
2023-03-22T08:16:01.140Z,100547.66
2023-03-22T08:19:03.621Z,100549.97
2023-03-22T08:22:10.152Z,100555.41
2023-03-22T08:25:32.494Z,100552.97
2023-03-22T08:28:51.150Z,100549.88
2023-03-22T08:31:54.281Z,100520.97
2023-03-22T08:34:56.751Z,100530.78
2023-03-22T08:37:59.363Z,100540.19
2023-03-22T08:41:10.844Z,100541.78
2023-03-22T08:44:13.368Z,100533.56
2023-03-22T08:47:16.902Z,100538.66
2023-03-22T08:50:20.180Z,100530.03
2023-03-22T08:53:29.999Z,100530.81
2023-03-22T08:56:52.090Z,100544.16
2023-03-22T09:00:25.113Z,100546.50
2023-03-22T09:03:40.562Z,100544.16
2023-03-22T09:06:45.459Z,100546.50
2023-03-22T09:09:47.899Z,100526.06
2023-03-22T09:12:50.833Z,100551.16
2023-03-22T09:15:53.354Z,100551.53
2023-03-22T09:19:02.496Z,100529.94
2023-03-22T09:22:06.271Z,100533.41
2023-03-22T09:25:17.056Z,100546.66
2023-03-22T09:28:24.053Z,100525.44
2023-03-22T09:31:30.949Z,100545.41
2023-03-22T09:34:44.085Z,100534.78
2023-03-22T09:37:55.619Z,100533.97
2023-03-22T09:41:06.806Z,100531.16
2023-03-22T09:44:15.520Z,100527.19
2023-03-22T09:47:43.901Z,100527.16
2023-03-22T09:50:52.780Z,100510.66
2023-03-22T09:53:55.386Z,100509.88
2023-03-22T09:57:06.774Z,100523.09
2023-03-22T10:00:44.729Z,100479.28
2023-03-22T10:03:47.255Z,100525.03
2023-03-22T10:06:59.987Z,100500.34
2023-03-22T10:10:13.451Z,100508.56
2023-03-22T10:13:18.029Z,100513.59
2023-03-22T10:16:28.691Z,100514.78
2023-03-22T10:19:35.788Z,100515.19
2023-03-22T10:22:43.193Z,100506.16
2023-03-22T10:25:46.470Z,100516.31
2023-03-22T10:29:06.054Z,100515.09
2023-03-22T10:32:54.786Z,100513.91
2023-03-22T10:35:59.772Z,100515.88
2023-03-22T10:39:29.282Z,100511.50
2023-03-22T10:42:31.948Z,100512.59
2023-03-22T10:45:36.507Z,100501.22
2023-03-22T10:48:42.516Z,100503.00
2023-03-22T10:51:49.994Z,100478.00
2023-03-22T10:54:52.614Z,100467.81
2023-03-22T10:57:59.635Z,100505.69
2023-03-22T11:01:09.211Z,100498.22
2023-03-22T11:04:15.792Z,100494.22
2023-03-22T11:07:44.356Z,100498.13
2023-03-22T11:10:51.356Z,100485.56
2023-03-22T11:14:15.249Z,100469.84
2023-03-22T11:17:23.810Z,100455.38
2023-03-22T11:20:26.324Z,100438.91
2023-03-22T11:23:32.809Z,100440.41
2023-03-22T11:26:40.702Z,100465.00
2023-03-22T11:29:47.362Z,100436.81
2023-03-22T11:33:09.994Z,100454.84
2023-03-22T11:36:18.101Z,100410.63
2023-03-22T11:39:23.869Z,100423.47
2023-03-22T11:42:26.577Z,100431.84
2023-03-22T11:45:31.729Z,100444.19
2023-03-22T11:48:35.032Z,100443.59
2023-03-22T11:51:39.148Z,100432.81
2023-03-22T11:54:42.650Z,100432.53
2023-03-22T11:57:45.785Z,100432.66
2023-03-22T12:00:52.475Z,100436.59
2023-03-22T12:03:57.061Z,100425.69
2023-03-22T12:07:00.665Z,100440.22
2023-03-22T12:10:12.630Z,100453.97
2023-03-22T12:13:21.308Z,100447.72
2023-03-22T12:16:28.709Z,100445.38
2023-03-22T12:19:31.205Z,100443.84
2023-03-22T12:22:37.702Z,100417.28
2023-03-22T12:25:40.779Z,100425.53
2023-03-22T12:28:56.485Z,100429.47
2023-03-22T12:32:03.478Z,100411.47
2023-03-22T12:35:17.253Z,100428.72
2023-03-22T12:38:27.881Z,100436.19
2023-03-22T12:41:39.031Z,100433.50
2023-03-22T12:44:52.759Z,100441.31
2023-03-22T12:48:45.181Z,100440.94
2023-03-22T12:51:49.273Z,100429.97
2023-03-22T12:54:52.594Z,100426.84
2023-03-22T12:57:55.710Z,100420.59
2023-03-22T13:01:06.528Z,100424.50
2023-03-22T13:04:35.795Z,100420.56
2023-03-22T13:07:45.970Z,100413.13
2023-03-22T13:11:01.900Z,100412.31
2023-03-22T13:14:04.297Z,100384.53
2023-03-22T13:17:07.444Z,100407.22
2023-03-22T13:20:13.677Z,100402.94
2023-03-22T13:23:26.559Z,100395.47
2023-03-22T13:26:32.847Z,100381.38
2023-03-22T13:29:36.574Z,100388.78
2023-03-22T13:32:51.647Z,100388.38
2023-03-22T13:36:07.035Z,100386.31
2023-03-22T13:39:12.519Z,100377.53
2023-03-22T13:42:19.534Z,100357.81
2023-03-22T13:45:33.598Z,100370.94
2023-03-22T13:49:02.500Z,100366.03
2023-03-22T13:52:07.693Z,100363.19
2023-03-22T13:55:38.113Z,100356.44
2023-03-22T13:58:46.715Z,100358.72
2023-03-22T14:02:15.904Z,100366.16
2023-03-22T14:05:22.432Z,100341.88
2023-03-22T14:08:28.546Z,100334.47
2023-03-22T14:12:01.570Z,100352.47
2023-03-22T14:15:05.325Z,100331.81
2023-03-22T14:18:33.654Z,100343.91
2023-03-22T14:21:42.925Z,100341.25
